Terminal Aerodrome Forecast
Issued by NWS Quad Cities IA IL

Home | Current Version | Previous Version | Text Only | Print | Product List | Glossary On
Versions: 1 2 3 4 5 6 7 8 9 10 11 12 13 14 15 16 17 18 19 20 21 22 23 24 25 26 27 28 29 30 31
000
FTUS43 KDVN 251000 AAB
TAFDBQ
TAF AMD
KDBQ 251051Z 2511/2606 28007KT 5SM BR SKC
      TEMPO 2511/2512 3SM BR SCT003
     FM251200 31007KT 6SM BR SCT200=

USA.gov is the U.S. government's official web portal to all federal, state and local government web resources and services.